Salida, California
Current Conditions -  °F | °C
As of 8:53 PM on Saturday 20 Dec 2014 (Local Time) from KMOD Reporting Station
Haze Haze  
Wind Chill: 56°   Ceiling: 5000
Heat Index: 56°   Visibility: 4mi
Dew Point: 53°   Wind: 0mph
Humidity: 90%   Direction: NA
Pressure: 30.25"   Gusts: NA
Location:  37.71°N, 121.09°W
Report Text: KMOD 210453Z 00000KT 4SM BR BKN050 OVC070 13/12 A3025 RMK AO2 SLP245 T01330117
Loading
Personal Weather Stations






























Interactive Weather Map New forecast layout! Learn more

10-Day Weather Forecast

Advertisements
Track Severe Weather on mobile